Time;durP1;ratioP1;P1;durP2;ratioP2;P2;SDS_P1;SDS_P2;PMS_P1;PMS_P2;Temp;Humidity;BMP_temperature;BMP_pressure;BME280_temperature;BME280_humidity;BME280_pressure;Samples;Min_cycle;Max_cycle;Signal;HPM_P1;HPM_P2
2023/07/01 00:00:51;;;;;;;2.30;0.98;;;;;;;18.04;100.00;100034.75;5061600;28;20358;-70
2023/07/01 00:03:18;;;;;;;1.33;1.17;;;;;;;18.05;100.00;100040.81;5061944;28;20385;-70
2023/07/01 00:05:43;;;;;;;2.75;0.70;;;;;;;18.08;100.00;100043.06;5073643;28;20473;-71
2023/07/01 00:08:09;;;;;;;1.50;0.70;;;;;;;18.05;100.00;100046.91;5078380;28;20040;-71
2023/07/01 00:10:34;;;;;;;2.35;0.93;;;;;;;18.16;100.00;100043.66;5061460;28;20029;-70
2023/07/01 00:13:00;;;;;;;3.40;1.30;;;;;;;18.10;100.00;100047.13;5057277;28;20025;-70
2023/07/01 00:15:25;;;;;;;2.13;1.05;;;;;;;18.07;100.00;100038.81;5073973;28;20055;-71
2023/07/01 00:17:54;;;;;;;3.70;0.80;;;;;;;17.97;100.00;100033.94;5065228;28;20090;-71
2023/07/01 00:20:20;;;;;;;2.65;0.70;;;;;;;17.96;100.00;100034.16;5072681;28;20421;-69
2023/07/01 00:22:45;;;;;;;2.15;0.85;;;;;;;17.96;100.00;100039.44;5076117;28;20043;-70
2023/07/01 00:25:11;;;;;;;1.38;0.60;;;;;;;17.94;100.00;100029.09;5057207;28;20045;-70
2023/07/01 00:27:36;;;;;;;2.15;0.73;;;;;;;17.97;100.00;100027.84;5059991;28;20230;-70
2023/07/01 00:30:03;;;;;;;1.25;0.70;;;;;;;18.06;100.00;100031.91;5057272;28;20064;-70
2023/07/01 00:32:28;;;;;;;2.22;0.77;;;;;;;18.16;100.00;100027.03;5069266;28;20029;-70
2023/07/01 00:34:54;;;;;;;2.22;0.93;;;;;;;18.29;100.00;100020.94;5079513;28;20384;-70
2023/07/01 00:37:20;;;;;;;3.47;1.00;;;;;;;18.32;100.00;100026.63;5066622;28;20031;-70
2023/07/01 00:39:45;;;;;;;1.65;0.95;;;;;;;18.24;100.00;100013.66;5056564;28;20039;-70
2023/07/01 00:42:12;;;;;;;1.13;0.60;;;;;;;18.08;100.00;100017.50;5057322;28;20032;-69
2023/07/01 00:44:37;;;;;;;1.33;0.60;;;;;;;18.01;100.00;100015.88;5074243;28;20036;-69
2023/07/01 00:47:03;;;;;;;4.88;0.73;;;;;;;17.97;100.00;100012.03;5058456;28;20028;-69
2023/07/01 00:49:29;;;;;;;1.40;0.52;;;;;;;17.97;100.00;100017.31;5065429;28;20124;-69
2023/07/01 00:51:56;;;;;;;1.55;0.80;;;;;;;17.94;100.00;100015.91;5056991;28;20116;-70
2023/07/01 00:54:22;;;;;;;0.90;0.60;;;;;;;17.91;100.00;100011.06;5061339;28;20037;-70
2023/07/01 00:56:48;;;;;;;1.50;0.60;;;;;;;17.89;100.00;100008.63;5067569;28;20047;-69
2023/07/01 00:59:13;;;;;;;1.60;0.50;;;;;;;17.90;100.00;100009.44;5057044;28;20028;-69
2023/07/01 01:01:42;;;;;;;1.63;0.50;;;;;;;17.89;100.00;100002.53;5056356;28;20039;-69
2023/07/01 01:04:23;;;;;;;1.00;0.65;;;;;;;17.82;100.00;99992.00;5064029;28;20081;-69
2023/07/01 01:07:05;;;;;;;1.27;0.50;;;;;;;17.84;100.00;99994.44;5070421;28;20451;-70
2023/07/01 01:09:48;;;;;;;1.58;0.50;;;;;;;17.79;100.00;99991.59;5077080;28;20032;-70
2023/07/01 01:12:15;;;;;;;0.90;0.40;;;;;;;17.78;100.00;99993.41;5062381;28;20033;-70
2023/07/01 01:14:42;;;;;;;2.08;0.47;;;;;;;17.83;100.00;99992.81;5056210;28;20029;-71
2023/07/01 01:17:13;;;;;;;1.90;0.47;;;;;;;17.88;100.00;99991.19;5057047;28;20025;-71
2023/07/01 01:19:44;;;;;;;0.88;0.55;;;;;;;17.88;100.00;99995.63;5071651;28;20408;-71
2023/07/01 01:22:17;;;;;;;1.00;0.40;;;;;;;17.84;100.00;99995.22;5063105;28;20445;-71
2023/07/01 01:24:46;;;;;;;1.30;0.50;;;;;;;17.87;100.00;99986.94;5053670;28;20061;-71
2023/07/01 01:27:22;;;;;;;2.08;0.40;;;;;;;17.83;100.00;99984.91;5053549;28;20036;-72
2023/07/01 01:29:47;;;;;;;;;;;;;;;17.73;100.00;99995.03;5059516;28;20072;-71
2023/07/01 01:32:13;;;;;;;;;;;;;;;17.67;100.00;99988.72;5070282;28;19956;-72
2023/07/01 01:34:38;;;;;;;1.57;0.70;;;;;;;17.76;100.00;99992.00;5072313;28;20368;-71
2023/07/01 01:37:11;;;;;;;1.10;0.63;;;;;;;17.82;100.00;99996.44;5069072;28;20036;-71
2023/07/01 01:39:43;;;;;;;0.85;0.45;;;;;;;17.88;100.00;99998.28;5070524;28;20078;-71
2023/07/01 01:42:16;;;;;;;1.80;0.57;;;;;;;17.90;100.00;99989.16;5067444;28;20024;-69
2023/07/01 01:44:52;;;;;;;1.50;0.40;;;;;;;17.93;100.00;99987.94;5068104;28;20044;-71
2023/07/01 01:47:25;;;;;;;2.45;0.60;;;;;;;17.91;100.00;99982.06;5071775;28;20055;-71
2023/07/01 01:49:54;;;;;;;1.00;0.40;;;;;;;17.95;100.00;99985.09;5072092;28;20053;-72
2023/07/01 01:52:21;;;;;;;3.72;0.52;;;;;;;17.98;100.00;99974.94;5075141;28;20041;-72
2023/07/01 01:54:50;;;;;;;1.65;0.60;;;;;;;18.00;100.00;99972.91;5076216;28;20067;-72
2023/07/01 01:57:16;;;;;;;1.80;0.60;;;;;;;18.07;100.00;99965.81;5076157;28;20045;-71
2023/07/01 01:59:43;;;;;;;1.83;0.50;;;;;;;18.10;100.00;99973.31;5076935;28;20086;-71
2023/07/01 02:02:09;;;;;;;1.92;0.45;;;;;;;18.20;100.00;99973.69;5058108;28;20056;-72
2023/07/01 02:04:34;;;;;;;4.97;0.63;;;;;;;18.26;100.00;99960.72;5068608;28;20063;-71
2023/07/01 02:07:00;;;;;;;2.15;0.50;;;;;;;18.41;100.00;99966.56;5067932;28;20086;-72
2023/07/01 02:09:25;;;;;;;1.23;0.50;;;;;;;18.61;100.00;99964.69;5075321;28;20056;-72
2023/07/01 02:11:51;;;;;;;2.97;0.60;;;;;;;18.75;100.00;99965.44;5078946;28;20044;-71
2023/07/01 02:14:16;;;;;;;3.13;0.68;;;;;;;18.88;100.00;99963.56;5070840;28;20082;-72
2023/07/01 02:16:42;;;;;;;2.15;0.70;;;;;;;18.93;100.00;99956.81;5076684;28;20042;-72
2023/07/01 02:19:07;;;;;;;1.67;0.88;;;;;;;18.94;100.00;99958.44;5080853;28;20442;-71
2023/07/01 02:21:34;;;;;;;2.55;0.60;;;;;;;18.97;100.00;99960.66;5069661;28;20496;-72
2023/07/01 02:23:59;;;;;;;1.85;0.63;;;;;;;18.97;100.00;99960.66;5072175;28;20025;-72
2023/07/01 02:26:24;;;;;;;2.58;0.73;;;;;;;19.03;100.00;99965.09;5069862;28;20470;-72
2023/07/01 02:28:50;;;;;;;3.30;0.75;;;;;;;19.02;100.00;99966.91;5074878;28;20025;-72
2023/07/01 02:31:18;;;;;;;1.00;0.60;;;;;;;19.00;100.00;99957.59;5064721;28;20048;-71
2023/07/01 02:33:44;;;;;;;2.53;0.57;;;;;;;19.01;100.00;99962.66;5073521;28;20041;-71
2023/07/01 02:36:09;;;;;;;1.23;0.80;;;;;;;19.03;100.00;99965.91;5068875;28;20060;-71
2023/07/01 02:38:35;;;;;;;1.27;0.47;;;;;;;19.05;100.00;99969.13;5074434;28;20484;-71
2023/07/01 02:41:01;;;;;;;3.72;0.80;;;;;;;19.15;100.00;99969.50;5067999;28;20051;-70
2023/07/01 02:43:26;;;;;;;3.83;0.85;;;;;;;19.11;100.00;99967.50;5067968;28;20080;-70
2023/07/01 02:45:52;;;;;;;3.60;1.00;;;;;;;19.03;100.00;99967.72;5070616;28;20414;-70
2023/07/01 02:48:17;;;;;;;1.83;0.98;;;;;;;18.97;100.00;99963.28;5069767;28;20032;-69
2023/07/01 02:50:43;;;;;;;1.10;0.73;;;;;;;18.90;100.00;99961.50;5070142;28;20033;-70
2023/07/01 02:53:08;;;;;;;2.65;0.80;;;;;;;18.93;100.00;99959.44;5082171;28;20038;-70
2023/07/01 02:55:35;;;;;;;2.05;0.95;;;;;;;18.75;100.00;99971.53;5076254;28;20404;-70
2023/07/01 02:58:00;;;;;;;1.52;0.80;;;;;;;18.70;100.00;99971.34;5072700;28;20029;-70
2023/07/01 03:00:26;;;;;;;1.15;0.60;;;;;;;18.69;100.00;99964.44;5072145;28;20032;-70
2023/07/01 03:02:51;;;;;;;3.08;1.05;;;;;;;18.70;100.00;99966.06;5057880;28;20111;-69
2023/07/01 03:05:21;;;;;;;2.70;0.68;;;;;;;18.68;100.00;99960.19;5058158;28;20480;-69
2023/07/01 03:07:47;;;;;;;1.35;0.85;;;;;;;18.68;100.00;99962.03;5056643;28;20033;-70
2023/07/01 03:10:13;;;;;;;1.73;0.60;;;;;;;18.69;100.00;99961.81;5064332;28;20045;-69
2023/07/01 03:12:38;;;;;;;1.55;0.80;;;;;;;18.72;100.00;99968.50;5050643;28;20098;-69
2023/07/01 03:15:04;;;;;;;1.10;0.60;;;;;;;18.70;100.00;99966.06;5056954;28;20113;-69
2023/07/01 03:17:29;;;;;;;1.88;0.60;;;;;;;18.70;100.00;99954.69;5056431;28;20044;-69
2023/07/01 03:19:55;;;;;;;2.38;0.70;;;;;;;18.70;100.00;99963.44;5064331;28;20077;-69
2023/07/01 03:22:20;;;;;;;2.10;0.70;;;;;;;18.71;100.00;99962.41;5072050;28;20497;-70
2023/07/01 03:24:46;;;;;;;1.38;0.65;;;;;;;18.64;100.00;99959.00;5051043;28;20461;-68
2023/07/01 03:27:11;;;;;;;2.33;0.98;;;;;;;18.56;100.00;99959.19;5055167;28;20084;-70
2023/07/01 03:29:36;;;;;;;3.17;0.68;;;;;;;18.43;100.00;99962.66;5057185;28;20481;-71
2023/07/01 03:32:05;;;;;;;1.17;0.70;;;;;;;18.34;100.00;99955.22;5053343;28;20379;-69
2023/07/01 03:34:30;;;;;;;1.30;0.57;;;;;;;18.34;100.00;99952.56;5070180;28;20036;-69
2023/07/01 03:36:56;;;;;;;2.30;0.65;;;;;;;18.30;100.00;99948.72;5067033;28;20039;-67
2023/07/01 03:39:22;;;;;;;1.27;0.50;;;;;;;18.28;100.00;99945.50;5077859;28;20048;-70
2023/07/01 03:41:47;;;;;;;1.42;0.82;;;;;;;18.24;100.00;99945.91;5061806;28;20487;-69
2023/07/01 03:44:13;;;;;;;3.65;0.75;;;;;;;18.16;100.00;99943.47;5071360;28;20081;-69
2023/07/01 03:46:38;;;;;;;3.13;1.35;;;;;;;17.87;100.00;99950.03;5076407;28;20385;-69
2023/07/01 03:49:04;;;;;;;4.28;1.20;;;;;;;17.41;100.00;99938.66;5067806;28;20062;-70
2023/07/01 03:51:30;;;;;;;1.58;1.10;;;;;;;17.15;100.00;99936.78;5061067;28;20047;-70
2023/07/01 03:53:56;;;;;;;1.65;1.15;;;;;;;17.06;100.00;99932.72;5072851;28;20036;-69
2023/07/01 03:56:21;;;;;;;2.35;1.00;;;;;;;17.03;100.00;99917.31;5064030;28;20510;-69
2023/07/01 03:58:47;;;;;;;2.35;1.35;;;;;;;16.95;100.00;99928.06;5066532;28;20082;-68
2023/07/01 04:01:15;;;;;;;1.50;1.00;;;;;;;16.92;100.00;99927.44;5060926;28;20085;-70
2023/07/01 04:03:41;;;;;;;1.63;1.33;;;;;;;16.91;100.00;99912.66;5070798;28;20432;-69
2023/07/01 04:06:07;;;;;;;1.40;0.90;;;;;;;16.88;100.00;99915.69;5074812;28;20033;-70
2023/07/01 04:08:33;;;;;;;2.95;1.13;;;;;;;16.95;100.00;99917.53;5074527;28;20035;-69
2023/07/01 04:10:58;;;;;;;2.45;1.02;;;;;;;16.92;100.00;99919.56;5062786;28;20044;-69
2023/07/01 04:13:24;;;;;;;2.22;1.08;;;;;;;16.94;100.00;99926.44;5057566;28;20041;-70
2023/07/01 04:15:49;;;;;;;3.15;1.30;;;;;;;16.94;100.00;99914.09;5066157;28;20145;-69
2023/07/01 04:18:15;;;;;;;3.00;1.75;;;;;;;17.03;100.00;99917.31;5074997;28;20035;-70
2023/07/01 04:20:41;;;;;;;2.10;1.48;;;;;;;16.99;100.00;99924.03;5063304;28;20036;-70
2023/07/01 04:23:06;;;;;;;3.15;2.25;;;;;;;17.04;100.00;99918.94;5072548;28;20041;-69
2023/07/01 04:25:32;;;;;;;3.35;1.73;;;;;;;17.01;100.00;99916.75;5068868;28;20495;-70
2023/07/01 04:27:57;;;;;;;3.58;1.60;;;;;;;17.02;100.00;99913.06;5068934;28;20118;-70
2023/07/01 04:30:23;;;;;;;3.42;1.50;;;;;;;17.02;100.00;99915.69;5072745;28;20100;-71
2023/07/01 04:32:49;;;;;;;2.65;1.73;;;;;;;17.01;100.00;99912.28;5064856;28;20028;-71
2023/07/01 04:35:15;;;;;;;3.58;1.30;;;;;;;17.01;100.00;99916.75;5070488;28;20046;-69
2023/07/01 04:37:41;;;;;;;3.58;1.55;;;;;;;17.01;100.00;99914.09;5074656;28;20375;-71
2023/07/01 04:40:07;;;;;;;3.53;1.23;;;;;;;17.04;100.00;99911.88;5065738;28;20093;-72
2023/07/01 04:42:34;;;;;;;3.50;1.15;;;;;;;17.07;100.00;99908.03;5065571;28;20055;-72
2023/07/01 04:45:05;;;;;;;2.67;1.02;;;;;;;17.08;100.00;99904.38;5071334;28;20036;-73
2023/07/01 04:47:30;;;;;;;2.67;1.20;;;;;;;17.10;100.00;99911.06;5070315;28;20393;-72
2023/07/01 04:49:56;;;;;;;1.63;1.10;;;;;;;17.18;100.00;99908.25;5066396;28;20027;-72
2023/07/01 04:52:23;;;;;;;2.78;1.83;;;;;;;17.21;100.00;99909.66;5069515;28;20033;-72
2023/07/01 04:54:50;;;;;;;2.20;1.00;;;;;;;17.28;100.00;99918.38;5076603;28;20085;-72
2023/07/01 04:57:16;;;;;;;2.58;1.40;;;;;;;17.36;100.00;99917.38;5071900;28;20037;-72
2023/07/01 04:59:44;;;;;;;2.47;1.70;;;;;;;17.48;100.00;99913.94;5066882;28;20082;-72
2023/07/01 05:02:10;;;;;;;4.13;1.67;;;;;;;17.59;100.00;99915.16;5069223;28;20035;-72
2023/07/01 05:04:36;;;;;;;5.53;1.95;;;;;;;17.67;100.00;99914.97;5063676;28;20028;-72
2023/07/01 05:07:02;;;;;;;4.47;2.13;;;;;;;17.74;100.00;99918.41;5056348;28;20039;-73
2023/07/01 05:09:27;;;;;;;4.85;2.00;;;;;;;17.67;100.00;99916.78;5059559;28;20037;-73
2023/07/01 05:11:53;;;;;;;2.03;1.35;;;;;;;17.67;100.00;99914.16;5054059;28;20374;-72
2023/07/01 05:14:19;;;;;;;3.25;1.30;;;;;;;17.57;100.00;99904.81;5053917;28;20108;-72
2023/07/01 05:16:44;;;;;;;3.45;1.30;;;;;;;17.55;100.00;99906.84;5057286;28;20032;-71
2023/07/01 05:19:10;;;;;;;2.00;0.98;;;;;;;17.58;100.00;99905.63;5073555;28;20032;-72
2023/07/01 05:21:36;;;;;;;2.95;1.23;;;;;;;17.53;100.00;99913.31;5061690;28;20053;-72
2023/07/01 05:24:08;;;;;;;1.73;0.90;;;;;;;17.52;100.00;99915.16;5060307;28;20111;-71
2023/07/01 05:26:34;;;;;;;3.20;1.05;;;;;;;17.56;100.00;99911.09;5062438;28;20028;-72
2023/07/01 05:29:00;;;;;;;1.40;1.02;;;;;;;17.57;100.00;99915.34;5058541;28;20052;-72
2023/07/01 05:31:25;;;;;;;3.75;1.05;;;;;;;17.58;100.00;99914.34;5057042;28;20075;-72
2023/07/01 05:33:51;;;;;;;3.60;1.35;;;;;;;17.60;100.00;99908.88;5065574;28;20102;-72
2023/07/01 05:36:16;;;;;;;3.17;1.00;;;;;;;17.59;100.00;99909.88;5064466;28;20470;-72
2023/07/01 05:38:42;;;;;;;2.28;1.27;;;;;;;17.63;100.00;99911.09;5069669;28;20034;-72
2023/07/01 05:41:08;;;;;;;1.90;0.93;;;;;;;17.66;100.00;99902.00;5068557;28;20029;-71
2023/07/01 05:43:33;;;;;;;2.45;0.93;;;;;;;17.69;100.00;99901.59;5059017;28;20481;-72
2023/07/01 05:45:59;;;;;;;1.45;1.17;;;;;;;17.69;100.00;99909.50;5066724;28;20028;-71
2023/07/01 05:48:24;;;;;;;3.08;1.20;;;;;;;17.71;100.00;99907.47;5073823;28;20488;-71
2023/07/01 05:50:50;;;;;;;4.78;1.10;;;;;;;17.71;100.00;99907.47;5072423;28;20415;-69
2023/07/01 05:53:15;;;;;;;2.70;1.40;;;;;;;17.76;100.00;99907.69;5077720;28;20041;-69
2023/07/01 05:55:40;;;;;;;2.72;1.48;;;;;;;17.81;100.00;99913.94;5070193;28;20473;-69
2023/07/01 05:58:06;;;;;;;7.65;1.50;;;;;;;17.96;100.00;99907.66;5072865;28;20566;-69
2023/07/01 06:00:31;;;;;;;2.88;1.50;;;;;;;17.93;100.00;99914.16;5073985;28;20111;-69
2023/07/01 06:02:57;;;;;;;2.50;0.90;;;;;;;17.89;100.00;99910.31;5071814;28;20468;-68
2023/07/01 06:05:22;;;;;;;3.97;1.20;;;;;;;17.90;100.00;99915.38;5072017;28;20036;-69
2023/07/01 06:07:49;;;;;;;3.53;1.25;;;;;;;17.96;100.00;99911.06;5072851;28;20025;-68
2023/07/01 06:10:15;;;;;;;5.65;1.48;;;;;;;17.92;100.00;99909.06;5071249;28;20132;-69
2023/07/01 06:12:41;;;;;;;4.07;1.45;;;;;;;17.96;100.00;99916.34;5063960;28;20108;-69
2023/07/01 06:15:07;;;;;;;2.47;1.65;;;;;;;18.00;100.00;99922.81;5058835;28;20032;-68
2023/07/01 06:17:32;;;;;;;4.15;1.50;;;;;;;18.08;100.00;99930.53;5069345;28;20037;-69
2023/07/01 06:19:57;;;;;;;3.10;1.70;;;;;;;18.28;100.00;99941.03;5071950;28;20028;-69
2023/07/01 06:22:23;;;;;;;4.53;1.90;;;;;;;18.41;100.00;99950.72;5071584;28;20131;-68
2023/07/01 06:24:48;;;;;;;2.45;1.65;;;;;;;18.47;100.00;99937.50;5064999;28;20067;-68
2023/07/01 06:27:14;;;;;;;4.63;1.55;;;;;;;18.48;100.00;99935.66;5055690;28;20083;-68
2023/07/01 06:29:39;;;;;;;6.32;2.33;;;;;;;18.45;100.00;99942.16;5068100;28;20033;-68
2023/07/01 06:32:05;;;;;;;3.17;2.10;;;;;;;18.57;100.00;99942.34;5071863;28;20437;-71
2023/07/01 06:34:30;;;;;;;3.40;1.90;;;;;;;18.52;100.00;99944.78;5070695;28;20111;-70
2023/07/01 06:36:56;;;;;;;3.85;1.40;;;;;;;18.34;100.00;99944.66;5072750;28;20174;-69
2023/07/01 06:39:21;;;;;;;5.13;1.77;;;;;;;18.31;100.00;99945.88;5074627;28;20070;-69
2023/07/01 06:41:47;;;;;;;2.78;1.58;;;;;;;18.38;100.00;99940.59;5069129;28;20025;-70
2023/07/01 06:44:13;;;;;;;3.10;1.55;;;;;;;18.36;100.00;99947.91;5069082;28;20168;-68
2023/07/01 06:46:39;;;;;;;2.95;1.90;;;;;;;18.36;100.00;99950.53;5072723;28;20563;-68
2023/07/01 06:49:04;;;;;;;4.85;2.70;;;;;;;18.57;100.00;99950.25;5086610;28;20036;-68
2023/07/01 06:51:29;;;;;;;3.38;2.55;;;;;;;18.79;100.00;99954.25;5077801;28;20036;-68
2023/07/01 06:53:55;;;;;;;3.13;2.80;;;;;;;18.93;100.00;99957.63;5065720;28;20097;-68
2023/07/01 06:56:21;;;;;;;5.57;3.30;;;;;;;19.02;100.00;99960.84;5056715;28;20036;-68
2023/07/01 06:58:46;;;;;;;4.32;2.90;;;;;;;19.03;100.00;99973.00;5066155;28;20036;-68
2023/07/01 07:01:12;;;;;;;4.07;3.38;;;;;;;19.09;100.00;99974.81;5067473;28;20081;-68
2023/07/01 07:03:39;;;;;;;6.25;3.60;;;;;;;19.07;100.00;99971.56;5056544;28;20167;-68
2023/07/01 07:06:06;;;;;;;3.33;2.50;;;;;;;19.07;100.00;99976.84;5068472;28;20036;-69
2023/07/01 07:08:32;;;;;;;5.75;3.38;;;;;;;19.08;100.00;99978.47;5063800;28;20037;-68
2023/07/01 07:10:57;;;;;;;5.35;3.35;;;;;;;19.01;100.00;99973.22;5069295;28;20032;-68
2023/07/01 07:13:23;;;;;;;5.35;3.50;;;;;;;19.01;100.00;99972.41;5073412;28;20037;-68
2023/07/01 07:15:48;;;;;;;3.80;3.00;;;;;;;19.00;100.00;99968.16;5076029;28;20052;-68
2023/07/01 07:18:14;;;;;;;5.22;3.00;;;;;;;18.96;100.00;99970.41;5073170;28;20038;-68
2023/07/01 07:20:39;;;;;;;6.32;3.33;;;;;;;18.96;100.00;99969.59;5076280;28;20028;-68
2023/07/01 07:23:08;;;;;;;3.45;3.05;;;;;;;18.88;100.00;99974.13;5063413;28;20227;-68
2023/07/01 07:25:34;;;;;;;2.72;2.50;;;;;;;18.85;100.00;99973.72;5069270;28;20029;-68
2023/07/01 07:28:01;;;;;;;6.78;3.30;;;;;;;18.90;100.00;99966.78;5073910;28;20116;-67
2023/07/01 07:30:26;;;;;;;6.22;3.63;;;;;;;18.97;100.00;99971.22;5072239;28;20037;-68
2023/07/01 07:32:52;;;;;;;8.70;3.80;;;;;;;19.03;100.00;99970.38;5076259;28;20032;-68
2023/07/01 07:35:18;;;;;;;5.85;3.50;;;;;;;19.03;100.00;99962.44;5071273;28;20048;-67
2023/07/01 07:37:43;;;;;;;4.57;3.83;;;;;;;19.10;100.00;99974.59;5078772;28;20027;-67
2023/07/01 07:40:10;;;;;;;4.22;3.30;;;;;;;19.10;100.00;99971.16;5073405;28;20507;-67
2023/07/01 07:42:35;;;;;;;4.80;3.60;;;;;;;19.13;100.00;99971.53;5061200;28;20375;-68
2023/07/01 07:45:04;;;;;;;6.85;3.80;;;;;;;19.14;100.00;99969.72;5071448;28;20123;-69
2023/07/01 07:47:30;;;;;;;5.15;3.50;;;;;;;19.04;100.00;99964.88;5070897;28;20039;-69
2023/07/01 07:49:55;;;;;;;5.13;3.08;;;;;;;19.03;100.00;99965.09;5062304;28;20040;-69
2023/07/01 07:52:21;;;;;;;6.78;4.15;;;;;;;19.10;100.00;99955.31;5068936;28;20128;-69
2023/07/01 07:54:47;;;;;;;6.50;4.53;;;;;;;19.13;100.00;99965.44;5061926;28;20038;-69
2023/07/01 07:57:13;;;;;;;6.78;4.05;;;;;;;19.18;100.00;99962.97;5070388;28;20063;-69
2023/07/01 07:59:43;;;;;;;4.60;3.30;;;;;;;19.18;100.00;99962.97;5058544;28;20048;-69
2023/07/01 08:02:08;;;;;;;6.82;3.80;;;;;;;19.20;100.00;99968.84;5063013;28;20073;-69
2023/07/01 08:04:35;;;;;;;4.75;3.60;;;;;;;19.11;100.00;99963.00;5073283;28;20036;-70
2023/07/01 08:07:00;;;;;;;9.80;4.32;;;;;;;19.06;100.00;99964.66;5069532;28;20041;-70
2023/07/01 08:09:26;;;;;;;6.30;3.75;;;;;;;19.02;100.00;99964.28;5060411;28;20511;-70
2023/07/01 08:11:51;;;;;;;5.60;3.80;;;;;;;19.03;100.00;99970.38;5068254;28;20063;-70
2023/07/01 08:14:20;;;;;;;7.05;4.75;;;;;;;18.98;100.00;99963.09;5075384;28;20028;-70
2023/07/01 08:16:45;;;;;;;7.55;4.80;;;;;;;19.05;100.00;99966.50;5073899;28;20063;-69
2023/07/01 08:19:11;;;;;;;9.20;4.78;;;;;;;19.03;100.00;99965.09;5068129;28;20487;-69
2023/07/01 08:21:37;;;;;;;9.50;4.80;;;;;;;19.02;100.00;99961.63;5070806;28;20075;-68
2023/07/01 08:24:07;;;;;;;7.05;4.53;;;;;;;19.02;100.00;99972.19;5064910;28;20461;-69
2023/07/01 08:26:32;;;;;;;6.32;4.03;;;;;;;18.90;100.00;99968.63;5066352;28;20036;-69
2023/07/01 08:28:57;;;;;;;7.35;5.00;;;;;;;18.74;100.00;99962.00;5069942;28;20388;-69
2023/07/01 08:31:23;;;;;;;7.18;4.00;;;;;;;18.75;100.00;99970.72;5065863;28;20029;-68
2023/07/01 08:33:48;;;;;;;9.65;4.00;;;;;;;18.76;100.00;99962.59;5075505;28;20039;-67
2023/07/01 08:36:14;;;;;;;8.18;4.25;;;;;;;18.82;100.00;99966.22;5067096;28;20037;-71
2023/07/01 08:38:39;;;;;;;9.73;4.72;;;;;;;18.75;100.00;99953.06;5068919;28;20032;-69
2023/07/01 08:41:10;;;;;;;8.90;4.57;;;;;;;18.75;100.00;99957.53;5067527;28;20029;-69
2023/07/01 08:43:38;;;;;;;6.38;4.25;;;;;;;18.80;100.00;99960.34;5061960;28;20368;-68
2023/07/01 08:46:05;;;;;;;8.20;4.47;;;;;;;18.88;100.00;99952.19;5063306;28;20055;-69
2023/07/01 08:48:34;;;;;;;7.75;4.20;;;;;;;18.96;100.00;99959.03;5070008;28;20043;-69
2023/07/01 08:51:25;;;;;;;6.45;4.60;;;;;;;19.08;100.00;99944.97;5064404;28;20025;-72
2023/07/01 08:53:51;;;;;;;9.73;5.68;;;;;;;19.36;100.00;99944.59;5065832;28;20043;-67
2023/07/01 08:56:21;;;;;;;7.15;4.13;;;;;;;19.52;100.00;99944.06;5080673;28;20036;-68
2023/07/01 08:58:47;;;;;;;8.30;4.80;;;;;;;19.66;100.00;99950.06;5083006;28;20033;-69
2023/07/01 09:01:14;;;;;;;9.00;4.63;;;;;;;19.61;100.00;99943.81;5065792;28;20035;-67
2023/07/01 09:03:40;;;;;;;6.65;4.28;;;;;;;19.51;100.00;99929.25;5078887;28;20048;-76
2023/07/01 09:06:06;;;;;;;9.82;5.05;;;;;;;19.77;100.00;99930.06;5073451;28;20040;-67
2023/07/01 09:08:38;;;;;;;8.23;4.78;;;;;;;20.04;100.00;99925.31;5070419;28;20500;-67
2023/07/01 09:11:05;;;;;;;9.50;4.93;;;;;;;20.14;100.00;99917.69;5072141;28;20028;-67
2023/07/01 09:13:31;;;;;;;8.68;4.10;;;;;;;20.37;100.00;99919.63;5088840;28;20059;-67
2023/07/01 09:15:56;;;;;;;6.45;4.22;;;;;;;20.53;100.00;99909.31;5077287;28;20051;-68
2023/07/01 09:18:24;;;;;;;8.05;4.78;;;;;;;20.62;100.00;99915.09;5093860;28;20035;-68
2023/07/01 09:20:51;;;;;;;6.25;4.28;;;;;;;20.53;100.00;99916.44;5067892;28;20036;-68
2023/07/01 09:23:29;;;;;;;10.07;5.07;;;;;;;20.69;100.00;99913.19;5062105;28;20111;-68
2023/07/01 09:26:07;;;;;;;7.95;4.93;;;;;;;20.77;100.00;99904.94;5076753;28;20086;-68
2023/07/01 09:28:34;;;;;;;7.30;4.43;;;;;;;20.74;100.00;99915.97;5091663;28;20381;-75
2023/07/01 09:31:09;;;;;;;8.23;4.85;;;;;;;20.73;100.00;99903.75;5083304;28;20032;-68
2023/07/01 09:33:36;;;;;;;9.80;4.28;;;;;;;20.79;100.00;99905.53;5085230;28;20024;-66
2023/07/01 09:36:02;;;;;;;4.85;4.05;;;;;;;20.92;100.00;99906.34;5073659;28;20070;-67
2023/07/01 09:38:32;;;;;;;7.20;4.20;;;;;;;21.11;100.00;99905.25;5060487;28;20028;-67
2023/07/01 09:41:17;;;;;;;6.57;4.78;;;;;;;21.39;100.00;99902.78;5079215;28;20054;-67
2023/07/01 09:43:43;;;;;;;7.57;4.68;;;;;;;21.50;100.00;99894.06;5080888;28;20056;-67
2023/07/01 09:46:09;;;;;;;9.07;5.10;;;;;;;21.70;100.00;99899.03;5068515;28;20040;-68
2023/07/01 09:48:34;;;;;;;7.70;4.53;;;;;;;21.50;100.00;99903.84;5072412;28;20036;-68
2023/07/01 09:51:04;;;;;;;5.70;4.20;;;;;;;21.29;100.00;99907.84;5067515;28;20502;-68
2023/07/01 09:53:34;;;;;;;7.22;4.55;;;;;;;21.26;100.00;99903.03;5075312;28;20041;-68
2023/07/01 09:56:04;;;;;;;4.85;4.35;;;;;;;21.37;100.00;99904.06;5070282;28;20033;-68
2023/07/01 09:58:31;;;;;;;7.05;5.18;;;;;;;21.43;100.00;99903.97;5061728;28;20020;-69
2023/07/01 10:00:57;;;;;;;8.75;4.15;;;;;;;21.56;100.00;99889.69;5085747;28;20054;-68
2023/07/01 10:03:25;;;;;;;7.00;4.15;;;;;;;21.43;100.00;99893.34;5074886;28;20026;-69
2023/07/01 10:05:51;;;;;;;7.18;4.13;;;;;;;21.41;100.00;99892.78;5071483;28;20479;-70
2023/07/01 10:08:17;;;;;;;6.75;4.80;;;;;;;21.51;100.00;99895.66;5075793;28;20064;-68
2023/07/01 10:10:43;;;;;;;9.05;4.80;;;;;;;21.27;100.00;99894.03;5086830;28;20383;-69
2023/07/01 10:13:10;;;;;;;6.68;4.40;;;;;;;21.27;100.00;99896.66;5093152;28;20144;-70
2023/07/01 10:15:38;;;;;;;6.93;4.40;;;;;;;21.38;100.00;99884.47;5085486;28;20057;-69
2023/07/01 10:18:20;;;;;;;6.93;4.80;;;;;;;21.28;100.00;99878.94;5091140;28;20032;-69
2023/07/01 10:20:46;;;;;;;9.00;5.15;;;;;;;21.23;100.00;99882.28;5088186;28;20035;-70
2023/07/01 10:23:12;;;;;;;10.45;5.28;;;;;;;21.16;100.00;99881.56;5083852;28;20055;-69
2023/07/01 10:25:39;;;;;;;6.97;4.80;;;;;;;21.09;100.00;99875.53;5090315;28;20071;-69
2023/07/01 10:28:09;;;;;;;7.13;4.50;;;;;;;21.09;100.00;99870.25;5083328;28;20060;-69
2023/07/01 10:30:46;;;;;;;9.13;4.93;;;;;;;21.28;100.00;99863.84;5090001;28;20040;-70
2023/07/01 10:33:30;;;;;;;8.73;5.57;;;;;;;21.52;100.00;99860.19;5078518;28;20044;-69
2023/07/01 10:36:14;;;;;;;7.60;4.93;;;;;;;21.75;100.00;99869.16;5078519;28;20040;-69
2023/07/01 10:38:40;;;;;;;10.10;5.22;;;;;;;21.96;100.00;99865.91;5089443;28;20073;-69
2023/07/01 10:41:06;;;;;;;7.38;5.57;;;;;;;22.01;100.00;99862.56;5072718;28;20191;-69
2023/07/01 10:43:33;;;;;;;6.70;4.40;;;;;;;22.18;100.00;99858.97;5074864;28;20351;-69
2023/07/01 10:46:09;;;;;;;6.28;4.72;;;;;;;22.05;100.00;99853.94;5091946;28;20032;-69
2023/07/01 10:48:35;;;;;;;8.43;5.32;;;;;;;22.26;100.00;99856.97;5072779;28;20033;-68
2023/07/01 10:51:05;;;;;;;6.10;4.10;;;;;;;22.33;100.00;99855.00;5082396;28;20036;-69
2023/07/01 10:53:50;;;;;;;8.35;5.15;;;;;;;22.42;100.00;99848.28;5091488;28;20036;-68
2023/07/01 10:56:16;;;;;;;6.07;4.05;;;;;;;22.52;100.00;99846.63;5075667;28;20108;-68
2023/07/01 10:58:42;;;;;;;7.63;4.55;;;;;;;22.46;100.00;99838.78;5091665;28;20130;-69
2023/07/01 11:01:08;;;;;;;7.22;4.47;;;;;;;22.20;100.00;99844.69;5089636;28;20028;-69
2023/07/01 11:03:33;;;;;;;8.32;5.15;;;;;;;22.23;100.00;99841.53;5080793;28;20043;-69
2023/07/01 11:06:01;;;;;;;8.20;4.32;;;;;;;22.46;100.00;99834.28;5075643;28;20050;-69
2023/07/01 11:08:30;;;;;;;10.52;5.40;;;;;;;22.52;100.00;99825.38;5087852;28;20038;-68
2023/07/01 11:10:56;;;;;;;7.95;5.10;;;;;;;22.65;100.00;99829.59;5091882;28;20185;-68
2023/07/01 11:13:23;;;;;;;9.05;4.35;;;;;;;22.72;100.00;99827.56;5086689;28;20126;-68
2023/07/01 11:16:04;;;;;;;10.85;4.78;;;;;;;22.75;100.00;99820.97;5088575;28;20031;-68
2023/07/01 11:19:00;;;;;;;7.20;4.60;;;;;;;22.99;100.00;99822.50;5070795;28;20516;-69
2023/07/01 11:21:28;;;;;;;7.25;4.50;;;;;;;23.01;100.00;99816.94;5066447;28;20095;-68
2023/07/01 11:24:05;;;;;;;6.72;4.35;;;;;;;23.03;100.00;99817.50;5090401;28;20047;-68